createdAt,value
2023-05-06T00:03:09.939Z,98960.02
2023-05-06T00:06:03.199Z,98956.46
2023-05-06T00:08:55.177Z,98953.73
2023-05-06T00:11:47.564Z,98956.09
2023-05-06T00:14:39.580Z,98953.48
2023-05-06T00:17:31.660Z,98950.90
2023-05-06T00:20:23.732Z,98954.23
2023-05-06T00:23:15.727Z,98948.63
2023-05-06T00:26:08.390Z,98942.94
2023-05-06T00:29:00.387Z,98932.63
2023-05-06T00:31:52.508Z,98930.55
2023-05-06T00:34:44.582Z,98928.51
2023-05-06T00:37:36.557Z,98926.81
2023-05-06T00:40:28.691Z,98917.61
2023-05-06T00:43:20.713Z,98921.88
2023-05-06T00:46:16.705Z,98929.05
2023-05-06T00:49:08.917Z,98929.74
2023-05-06T00:52:01.662Z,98925.34
2023-05-06T00:54:53.849Z,98930.88
2023-05-06T00:57:46.603Z,98928.28
2023-05-06T01:00:38.608Z,98919.98
2023-05-06T01:03:31.348Z,98921.33
2023-05-06T01:06:31.961Z,98927.65
2023-05-06T01:09:48.420Z,98927.60
2023-05-06T01:12:30.509Z,98923.83
2023-05-06T01:15:27.665Z,98922.98
2023-05-06T01:18:22.477Z,98923.73
2023-05-06T01:21:15.072Z,98921.44
2023-05-06T01:24:07.862Z,98920.80
2023-05-06T01:26:49.677Z,98923.08
2023-05-06T01:29:43.790Z,98923.02
2023-05-06T01:32:50.709Z,98926.68
2023-05-06T01:35:51.412Z,98928.41
2023-05-06T01:38:53.956Z,98927.83
2023-05-06T01:41:49.007Z,98925.33
2023-05-06T01:44:41.901Z,98928.40
2023-05-06T01:47:34.561Z,98925.02
2023-05-06T01:50:26.701Z,98925.96
2023-05-06T01:53:18.835Z,98923.27
2023-05-06T01:56:10.871Z,98918.35
2023-05-06T01:59:02.824Z,98916.07
2023-05-06T02:01:54.961Z,98911.09
2023-05-06T02:04:47.940Z,98908.23
2023-05-06T02:07:40.202Z,98906.13
2023-05-06T02:10:32.145Z,98903.70
2023-05-06T02:13:24.188Z,98906.57
2023-05-06T02:15:56.504Z,98898.70
2023-05-06T02:18:48.691Z,98895.59
2023-05-06T02:21:43.055Z,98892.52
2023-05-06T02:24:33.541Z,98885.32
2023-05-06T02:27:25.506Z,98885.24
2023-05-06T02:30:17.589Z,98879.52
2023-05-06T02:33:09.570Z,98878.16
2023-05-06T02:36:01.630Z,98884.26
2023-05-06T02:38:54.162Z,98883.32
2023-05-06T02:41:46.378Z,98883.94
2023-05-06T02:44:38.348Z,98880.31
2023-05-06T02:47:30.465Z,98875.96
2023-05-06T02:50:22.444Z,98876.16
2023-05-06T02:53:14.560Z,98878.44
2023-05-06T02:56:07.732Z,98878.80
2023-05-06T02:58:59.753Z,98883.91
2023-05-06T03:01:51.739Z,98883.77
2023-05-06T03:04:43.902Z,98882.64
2023-05-06T03:07:35.902Z,98884.34
2023-05-06T03:10:27.988Z,98883.52
2023-05-06T03:13:20.092Z,98887.64
2023-05-06T03:16:15.689Z,98886.77
2023-05-06T03:19:07.783Z,98882.64
2023-05-06T03:21:59.758Z,98878.39
2023-05-06T03:24:51.775Z,98875.63
2023-05-06T03:27:43.847Z,98867.89
2023-05-06T03:30:36.157Z,98874.43
2023-05-06T03:33:29.140Z,98876.52
2023-05-06T03:36:23.937Z,98878.48
2023-05-06T03:39:15.904Z,98878.06
2023-05-06T03:42:09.624Z,98877.95
2023-05-06T03:45:01.925Z,98879.38
2023-05-06T03:47:53.939Z,98880.13
2023-05-06T03:50:46.011Z,98880.75
2023-05-06T03:53:38.121Z,98887.58
2023-05-06T03:56:30.434Z,98893.07
2023-05-06T03:59:22.422Z,98896.01
2023-05-06T04:02:15.478Z,98900.63
2023-05-06T04:05:08.917Z,98904.56
2023-05-06T04:08:01.096Z,98901.04
2023-05-06T04:10:43.124Z,98896.55
2023-05-06T04:13:35.358Z,98892.20
2023-05-06T04:16:27.592Z,98890.78
2023-05-06T04:19:19.580Z,98890.37
2023-05-06T04:22:11.570Z,98881.32
2023-05-06T04:25:03.669Z,98883.41
2023-05-06T04:27:55.776Z,98884.30
2023-05-06T04:30:48.310Z,98881.79
2023-05-06T04:33:40.604Z,98883.89
2023-05-06T04:36:32.584Z,98881.27
2023-05-06T04:39:24.624Z,98880.02
2023-05-06T04:42:17.079Z,98882.29
2023-05-06T04:45:11.662Z,98880.70
2023-05-06T04:48:03.781Z,98876.23
2023-05-06T04:50:55.978Z,98871.91
2023-05-06T04:53:48.034Z,98869.16
2023-05-06T04:56:40.000Z,98859.07
2023-05-06T04:59:32.059Z,98856.69
2023-05-06T05:02:24.189Z,98853.72
2023-05-06T05:05:16.734Z,98859.92
2023-05-06T05:08:10.177Z,98861.80
2023-05-06T05:11:02.106Z,98859.89
2023-05-06T05:13:56.525Z,98856.20
2023-05-06T05:16:49.181Z,98859.55
2023-05-06T05:19:41.171Z,98864.63
2023-05-06T05:22:33.344Z,98862.44
2023-05-06T05:25:25.852Z,98872.12
2023-05-06T05:28:17.855Z,98877.52
2023-05-06T05:31:10.605Z,98874.48
2023-05-06T05:34:02.789Z,98867.18
2023-05-06T05:36:54.763Z,98863.42
2023-05-06T05:39:46.816Z,98859.89
2023-05-06T05:42:38.827Z,98847.95
2023-05-06T05:45:30.851Z,98844.81
2023-05-06T05:48:22.965Z,98841.56
2023-05-06T05:51:15.099Z,98838.27
2023-05-06T05:54:07.340Z,98835.73
2023-05-06T05:56:59.414Z,98834.98
2023-05-06T05:59:51.428Z,98828.90
2023-05-06T06:02:43.502Z,98829.23
2023-05-06T06:05:35.691Z,98819.06
2023-05-06T06:08:27.881Z,98822.06
2023-05-06T06:11:19.953Z,98822.64
2023-05-06T06:14:12.290Z,98814.63
2023-05-06T06:17:04.872Z,98812.71
2023-05-06T06:19:57.253Z,98805.22
2023-05-06T06:22:49.363Z,98803.98
2023-05-06T06:25:41.298Z,98804.27
2023-05-06T06:28:33.244Z,98806.11
2023-05-06T06:31:25.318Z,98809.28
2023-05-06T06:34:17.489Z,98812.90
2023-05-06T06:37:10.474Z,98808.67
2023-05-06T06:40:02.469Z,98812.18
2023-05-06T06:42:54.554Z,98812.71
2023-05-06T06:45:49.424Z,98808.80
2023-05-06T06:48:41.452Z,98803.42
2023-05-06T06:51:33.564Z,98803.14
2023-05-06T06:54:25.762Z,98800.80
2023-05-06T06:57:17.812Z,98802.29
2023-05-06T07:00:11.843Z,98794.62
2023-05-06T07:03:03.861Z,98790.80
2023-05-06T07:05:55.960Z,98787.76
2023-05-06T07:08:48.045Z,98787.21
2023-05-06T07:11:40.025Z,98785.82
2023-05-06T07:14:32.111Z,98778.88
2023-05-06T07:17:24.202Z,98773.14
2023-05-06T07:20:17.046Z,98770.77
2023-05-06T07:23:09.238Z,98765.61
2023-05-06T07:26:01.938Z,98757.39
2023-05-06T07:28:54.003Z,98753.50
2023-05-06T07:31:45.962Z,98757.55
2023-05-06T07:34:38.070Z,98755.44
2023-05-06T07:37:30.043Z,98753.79
2023-05-06T07:40:22.116Z,98743.86
2023-05-06T07:43:10.674Z,98747.00
2023-05-06T07:46:03.538Z,98745.10
2023-05-06T07:48:55.564Z,98743.35
2023-05-06T07:51:47.545Z,98747.30
2023-05-06T07:54:39.368Z,98748.54
2023-05-06T07:57:31.342Z,98746.37
2023-05-06T08:00:24.040Z,98747.52
2023-05-06T08:03:17.028Z,98747.23
2023-05-06T08:05:52.504Z,98747.05
2023-05-06T08:08:46.479Z,98747.52
2023-05-06T08:11:38.933Z,98742.77
2023-05-06T08:14:30.970Z,98742.63
2023-05-06T08:17:23.093Z,98741.82
2023-05-06T08:20:07.058Z,98745.79
2023-05-06T08:23:00.959Z,98744.79
2023-05-06T08:25:52.983Z,98744.63
2023-05-06T08:28:45.003Z,98740.29
2023-05-06T08:31:37.161Z,98740.53
2023-05-06T08:34:29.199Z,98738.83
2023-05-06T08:37:21.183Z,98738.02
2023-05-06T08:40:20.362Z,98733.98
2023-05-06T08:43:15.383Z,98733.01
2023-05-06T08:46:08.029Z,98731.05
2023-05-06T08:49:00.304Z,98733.94
2023-05-06T08:51:53.785Z,98723.94
2023-05-06T08:54:46.690Z,98717.37
2023-05-06T08:57:39.685Z,98710.21
2023-05-06T09:00:31.780Z,98706.61
2023-05-06T09:03:23.911Z,98703.02
2023-05-06T09:06:16.007Z,98700.21
2023-05-06T09:09:08.072Z,98696.48
2023-05-06T09:12:02.230Z,98693.61
2023-05-06T09:14:52.675Z,98689.60
2023-05-06T09:17:44.693Z,98688.86
2023-05-06T09:20:41.416Z,98687.90
2023-05-06T09:23:34.268Z,98685.38
2023-05-06T09:26:27.625Z,98683.40
2023-05-06T09:29:19.589Z,98679.37
2023-05-06T09:32:15.910Z,98673.27
2023-05-06T09:35:09.730Z,98676.20
2023-05-06T09:38:01.905Z,98674.34
2023-05-06T09:40:54.326Z,98675.75
2023-05-06T09:43:48.984Z,98683.07
2023-05-06T09:46:41.827Z,98698.51
2023-05-06T09:49:34.385Z,98723.22
2023-05-06T09:52:27.099Z,98731.73
2023-05-06T09:55:21.754Z,98737.60
2023-05-06T09:58:14.312Z,98739.94
2023-05-06T10:01:08.390Z,98744.66
2023-05-06T10:04:03.518Z,98742.40
2023-05-06T10:07:00.437Z,98743.31
2023-05-06T10:09:53.196Z,98739.36
2023-05-06T10:12:46.896Z,98744.41
2023-05-06T10:15:40.876Z,98741.84
2023-05-06T10:18:33.419Z,98743.22
2023-05-06T10:21:28.938Z,98746.86
2023-05-06T10:24:24.453Z,98742.47
2023-05-06T10:27:19.581Z,98735.27
2023-05-06T10:30:15.554Z,98727.90
2023-05-06T10:33:09.228Z,98729.43
2023-05-06T10:36:16.622Z,98718.25
2023-05-06T10:39:14.105Z,98714.02
2023-05-06T10:42:06.952Z,98709.13
2023-05-06T10:45:03.788Z,98708.39
2023-05-06T10:48:11.528Z,98701.68
2023-05-06T10:51:28.697Z,98697.36
2023-05-06T10:54:26.789Z,98699.52
2023-05-06T10:57:20.769Z,98695.76
2023-05-06T11:00:15.320Z,98702.70
2023-05-06T11:03:18.686Z,98707.52
2023-05-06T11:06:11.064Z,98706.34
2023-05-06T11:09:04.153Z,98704.15
2023-05-06T11:12:02.890Z,98703.64
2023-05-06T11:14:54.940Z,98692.79
2023-05-06T11:17:47.059Z,98695.21
2023-05-06T11:20:39.195Z,98685.27
2023-05-06T11:24:11.009Z,98680.52
2023-05-06T11:27:03.026Z,98681.42
2023-05-06T11:29:55.623Z,98675.57
2023-05-06T11:32:48.737Z,98667.77
2023-05-06T11:35:40.828Z,98666.23
2023-05-06T11:38:44.565Z,98667.59
2023-05-06T11:41:39.544Z,98664.67
2023-05-06T11:44:33.522Z,98668.36
2023-05-06T11:47:26.176Z,98668.48
2023-05-06T11:50:22.748Z,98668.25
2023-05-06T11:53:16.426Z,98670.83
2023-05-06T11:56:10.088Z,98670.23
2023-05-06T11:59:02.112Z,98672.15
2023-05-06T12:01:54.363Z,98669.30
2023-05-06T12:04:48.155Z,98670.17
2023-05-06T12:07:43.221Z,98668.05
2023-05-06T12:10:35.417Z,98669.09
2023-05-06T12:13:27.734Z,98673.20
2023-05-06T12:16:19.727Z,98670.40
2023-05-06T12:19:11.785Z,98672.55
2023-05-06T12:22:19.102Z,98678.48
2023-05-06T12:25:18.853Z,98683.45
2023-05-06T12:28:23.746Z,98692.94
2023-05-06T12:31:22.750Z,98692.33
2023-05-06T12:34:16.057Z,98691.55
2023-05-06T12:37:08.696Z,98700.66
2023-05-06T12:40:01.240Z,98695.38
2023-05-06T12:42:57.786Z,98696.48
2023-05-06T12:46:10.744Z,98703.88
2023-05-06T12:49:04.377Z,98690.82
2023-05-06T12:52:10.984Z,98688.88
2023-05-06T12:55:03.250Z,98693.16
2023-05-06T12:57:57.167Z,98692.52
2023-05-06T13:00:49.846Z,98689.70
2023-05-06T13:03:41.993Z,98691.52
2023-05-06T13:06:34.192Z,98687.41
2023-05-06T13:09:26.892Z,98687.30
2023-05-06T13:12:18.919Z,98687.34
2023-05-06T13:15:12.662Z,98686.66
2023-05-06T13:18:05.178Z,98692.45
2023-05-06T13:20:57.310Z,98689.60
2023-05-06T13:23:49.345Z,98691.75
2023-05-06T13:27:02.173Z,98691.31
2023-05-06T13:29:54.395Z,98692.31
2023-05-06T13:32:46.494Z,98695.18
2023-05-06T13:35:38.583Z,98693.35
2023-05-06T13:38:31.214Z,98691.27
2023-05-06T13:41:24.976Z,98686.90
2023-05-06T13:44:16.976Z,98680.34
2023-05-06T13:47:09.312Z,98673.74
2023-05-06T13:50:03.726Z,98674.10
2023-05-06T13:52:55.796Z,98671.34
2023-05-06T13:55:47.897Z,98679.38
2023-05-06T13:58:40.093Z,98682.77
2023-05-06T14:01:32.375Z,98680.05
2023-05-06T14:04:24.594Z,98678.73
2023-05-06T14:07:16.750Z,98675.99
2023-05-06T14:10:10.431Z,98673.60
2023-05-06T14:13:04.596Z,98670.86
2023-05-06T14:15:59.383Z,98668.77
2023-05-06T14:18:51.573Z,98669.10
2023-05-06T14:21:43.524Z,98671.56
2023-05-06T14:24:35.540Z,98671.20
2023-05-06T14:27:27.733Z,98673.45
2023-05-06T14:30:20.368Z,98672.47
2023-05-06T14:33:12.798Z,98666.45
2023-05-06T14:36:05.155Z,98671.73
2023-05-06T14:38:57.139Z,98672.13
2023-05-06T14:41:49.135Z,98668.38
2023-05-06T14:44:42.988Z,98667.31
2023-05-06T14:47:35.265Z,98662.27
2023-05-06T14:50:27.397Z,98663.07
2023-05-06T14:53:19.385Z,98662.47
2023-05-06T14:56:12.299Z,98659.33
2023-05-06T14:59:04.424Z,98663.95
2023-05-06T15:01:58.791Z,98663.62
2023-05-06T15:04:51.710Z,98663.96
2023-05-06T15:07:44.299Z,98658.33
2023-05-06T15:10:36.300Z,98661.41
2023-05-06T15:13:28.364Z,98663.98
2023-05-06T15:16:20.301Z,98667.10
2023-05-06T15:18:55.229Z,98666.81
2023-05-06T15:21:38.657Z,98667.38
2023-05-06T15:24:17.160Z,98670.08
2023-05-06T15:27:09.716Z,98674.77
2023-05-06T15:30:04.190Z,98676.88
2023-05-06T15:32:56.323Z,98679.92
2023-05-06T15:35:48.373Z,98681.70
2023-05-06T15:39:00.513Z,98683.29
2023-05-06T15:41:53.759Z,98686.81
2023-05-06T15:44:45.910Z,98685.10
2023-05-06T15:47:38.174Z,98688.89
2023-05-06T15:50:33.791Z,98695.81
2023-05-06T15:53:26.160Z,98697.45
2023-05-06T15:56:19.154Z,98693.03
2023-05-06T15:59:12.250Z,98695.09
2023-05-06T16:04:59.845Z,98695.59
2023-05-06T16:07:51.970Z,98697.46
2023-05-06T16:10:44.347Z,98695.57
2023-05-06T16:13:25.511Z,98701.77
2023-05-06T16:16:17.675Z,98708.26
2023-05-06T16:19:10.226Z,98708.34
2023-05-06T16:22:02.328Z,98701.58
2023-05-06T16:24:54.584Z,98698.98
2023-05-06T16:27:46.640Z,98699.11
2023-05-06T16:30:40.461Z,98702.85
2023-05-06T16:33:32.429Z,98702.98
2023-05-06T16:36:24.990Z,98703.66
2023-05-06T16:39:17.137Z,98705.85
2023-05-06T16:42:09.079Z,98705.13
2023-05-06T16:45:01.116Z,98706.29
2023-05-06T16:47:53.170Z,98706.26
2023-05-06T16:50:45.454Z,98705.80
2023-05-06T16:53:37.528Z,98710.77
2023-05-06T16:56:43.887Z,98716.52
2023-05-06T16:59:41.315Z,98704.46
2023-05-06T17:02:23.265Z,98703.05
2023-05-06T17:05:15.306Z,98711.45
2023-05-06T17:08:08.309Z,98711.10
2023-05-06T17:11:01.413Z,98708.63
2023-05-06T17:13:54.516Z,98707.88
2023-05-06T17:16:46.590Z,98707.82
2023-05-06T17:19:31.869Z,98705.27
2023-05-06T17:22:26.195Z,98707.55
2023-05-06T17:25:18.812Z,98703.45
2023-05-06T17:28:11.099Z,98707.95
2023-05-06T17:31:03.148Z,98709.10
2023-05-06T17:33:55.280Z,98711.73
2023-05-06T17:36:47.298Z,98712.95
2023-05-06T17:39:39.430Z,98713.19
2023-05-06T17:42:31.529Z,98717.56
2023-05-06T17:45:25.233Z,98716.20
2023-05-06T17:48:17.244Z,98714.71
2023-05-06T17:51:09.341Z,98716.23
2023-05-06T17:54:01.435Z,98713.27
2023-05-06T17:56:53.417Z,98715.52
2023-05-06T17:59:45.478Z,98715.52
2023-05-06T18:02:39.173Z,98714.30
2023-05-06T18:05:31.642Z,98715.85
2023-05-06T18:08:23.733Z,98718.03
2023-05-06T18:11:16.220Z,98721.64
2023-05-06T18:14:08.796Z,98731.21
2023-05-06T18:17:01.432Z,98733.91
2023-05-06T18:19:53.619Z,98739.63
2023-05-06T18:22:46.371Z,98745.67
2023-05-06T18:25:38.608Z,98753.52
2023-05-06T18:28:30.571Z,98758.67
2023-05-06T18:31:22.654Z,98760.09
2023-05-06T18:34:16.275Z,98758.40
2023-05-06T18:37:08.322Z,98762.63
2023-05-06T18:40:00.391Z,98766.73
2023-05-06T18:42:53.152Z,98771.15
2023-05-06T18:45:45.604Z,98768.51
2023-05-06T18:48:37.638Z,98772.59
2023-05-06T18:51:29.661Z,98771.18
2023-05-06T18:54:21.786Z,98779.08
2023-05-06T18:57:13.837Z,98777.41
2023-05-06T19:00:07.192Z,98777.94
2023-05-06T19:02:59.443Z,98780.47
2023-05-06T19:05:52.431Z,98785.36
2023-05-06T19:08:44.796Z,98782.23
2023-05-06T19:11:36.797Z,98783.73
2023-05-06T19:14:28.992Z,98783.42
2023-05-06T19:17:11.470Z,98789.08
2023-05-06T19:20:04.158Z,98787.98
2023-05-06T19:22:56.788Z,98784.45
2023-05-06T19:25:48.994Z,98789.03
2023-05-06T19:28:41.901Z,98791.18
2023-05-06T19:31:34.869Z,98792.59
2023-05-06T19:34:27.159Z,98783.75
2023-05-06T19:37:19.149Z,98784.46
2023-05-06T19:40:12.731Z,98785.86
2023-05-06T19:43:05.192Z,98788.74
2023-05-06T19:45:57.193Z,98794.69
2023-05-06T19:48:49.509Z,98800.45
2023-05-06T19:51:41.537Z,98803.86
2023-05-06T19:54:33.604Z,98803.09
2023-05-06T19:57:27.029Z,98802.98
2023-05-06T20:00:21.905Z,98803.90
2023-05-06T20:03:14.186Z,98808.08
2023-05-06T20:06:07.431Z,98808.75
2023-05-06T20:08:59.558Z,98804.27
2023-05-06T20:11:51.662Z,98814.02
2023-05-06T20:14:43.709Z,98812.10
2023-05-06T20:17:35.835Z,98812.11
2023-05-06T20:20:34.281Z,98815.34
2023-05-06T20:23:26.825Z,98813.42
2023-05-06T20:26:18.944Z,98811.61
2023-05-06T20:29:11.203Z,98817.35
2023-05-06T20:31:51.956Z,98814.69
2023-05-06T20:34:44.056Z,98817.52
2023-05-06T20:37:36.660Z,98815.40
2023-05-06T20:40:19.173Z,98820.14
2023-05-06T20:43:11.257Z,98816.92
2023-05-06T20:45:54.512Z,98822.33
2023-05-06T20:48:46.841Z,98819.69
2023-05-06T20:51:39.015Z,98827.87
2023-05-06T20:54:31.104Z,98828.38
2023-05-06T20:57:24.014Z,98829.58
2023-05-06T20:59:56.149Z,98830.65
2023-05-06T21:02:48.431Z,98831.15
2023-05-06T21:05:41.154Z,98828.23
2023-05-06T21:08:33.450Z,98832.40
2023-05-06T21:11:25.567Z,98834.50
2023-05-06T21:14:17.790Z,98834.16
2023-05-06T21:17:09.869Z,98838.71
2023-05-06T21:20:04.056Z,98841.02
2023-05-06T21:22:57.200Z,98839.45
2023-05-06T21:25:49.231Z,98838.98
2023-05-06T21:28:41.484Z,98839.12
2023-05-06T21:31:33.813Z,98840.71
2023-05-06T21:34:26.938Z,98843.16
2023-05-06T21:37:19.161Z,98848.32
2023-05-06T21:40:13.524Z,98847.55
2023-05-06T21:43:05.916Z,98855.27
2023-05-06T21:45:57.981Z,98857.54
2023-05-06T21:48:50.164Z,98859.93
2023-05-06T21:51:42.358Z,98859.23
2023-05-06T21:54:34.575Z,98869.52
2023-05-06T21:57:26.709Z,98870.27
2023-05-06T22:00:19.742Z,98874.02
2023-05-06T22:03:11.902Z,98867.11
2023-05-06T22:05:46.860Z,98870.81
2023-05-06T22:08:38.916Z,98872.94
2023-05-06T22:11:30.995Z,98874.63
2023-05-06T22:14:26.955Z,98869.16
2023-05-06T22:17:23.135Z,98869.79
2023-05-06T22:20:17.542Z,98873.16
2023-05-06T22:23:08.013Z,98871.50
2023-05-06T22:26:00.493Z,98877.23
2023-05-06T22:28:52.567Z,98878.93
2023-05-06T22:31:44.688Z,98876.32
2023-05-06T22:34:36.699Z,98877.15
2023-05-06T22:37:28.744Z,98877.11
2023-05-06T22:40:20.861Z,98874.30
2023-05-06T22:43:12.850Z,98877.13
2023-05-06T22:46:05.203Z,98878.77
2023-05-06T22:48:57.918Z,98880.13
2023-05-06T22:51:50.049Z,98880.83
2023-05-06T22:54:41.992Z,98877.55
2023-05-06T22:57:18.987Z,98873.58
2023-05-06T23:00:13.779Z,98869.74
2023-05-06T23:03:06.239Z,98867.98
2023-05-06T23:05:41.074Z,98874.27
2023-05-06T23:08:33.005Z,98877.48
2023-05-06T23:11:25.082Z,98879.23
2023-05-06T23:14:17.967Z,98881.40
2023-05-06T23:17:09.991Z,98885.45
2023-05-06T23:20:02.085Z,98889.83
2023-05-06T23:22:54.057Z,98893.92
2023-05-06T23:25:46.012Z,98896.16
2023-05-06T23:28:37.939Z,98898.77
2023-05-06T23:31:29.939Z,98898.30
2023-05-06T23:34:21.881Z,98899.54
2023-05-06T23:37:13.847Z,98896.38
2023-05-06T23:40:07.206Z,98898.89
2023-05-06T23:42:59.194Z,98900.89
2023-05-06T23:45:51.267Z,98907.01
2023-05-06T23:48:43.333Z,98910.19
2023-05-06T23:51:35.296Z,98904.65
2023-05-06T23:54:27.360Z,98898.57
2023-05-06T23:57:19.348Z,98896.42
